sensor_id;sensor_type;location;lat;lon;timestamp;pressure;altitude;pressure_sealevel;temperature;humidity
5455;BME280;2750;49.050;9.250;2023-05-12T00:03:04;98507.91;;;15.46;93.82
5455;BME280;2750;49.050;9.250;2023-05-12T00:08:06;98502.91;;;15.30;93.73
5455;BME280;2750;49.050;9.250;2023-05-12T00:13:07;98497.66;;;14.81;95.51
5455;BME280;2750;49.050;9.250;2023-05-12T00:18:10;98495.75;;;14.96;95.75
5455;BME280;2750;49.050;9.250;2023-05-12T00:23:12;98493.16;;;14.96;94.75
5455;BME280;2750;49.050;9.250;2023-05-12T00:28:13;98485.94;;;14.99;94.09
5455;BME280;2750;49.050;9.250;2023-05-12T00:33:16;98488.00;;;15.07;93.45
5455;BME280;2750;49.050;9.250;2023-05-12T00:38:17;98490.53;;;14.96;93.33
5455;BME280;2750;49.050;9.250;2023-05-12T00:43:19;98483.25;;;14.75;94.10
5455;BME280;2750;49.050;9.250;2023-05-12T00:48:22;98476.56;;;14.59;94.72
5455;BME280;2750;49.050;9.250;2023-05-12T00:53:24;98482.41;;;14.62;95.05
5455;BME280;2750;49.050;9.250;2023-05-12T00:58:25;98488.97;;;14.80;95.38
5455;BME280;2750;49.050;9.250;2023-05-12T01:03:28;98483.09;;;14.39;96.75
5455;BME280;2750;49.050;9.250;2023-05-12T01:08:31;98486.88;;;14.73;96.63
5455;BME280;2750;49.050;9.250;2023-05-12T01:13:33;98485.97;;;14.87;96.21
5455;BME280;2750;49.050;9.250;2023-05-12T01:18:37;98485.63;;;14.66;97.61
5455;BME280;2750;49.050;9.250;2023-05-12T01:23:42;98486.66;;;14.76;96.76
5455;BME280;2750;49.050;9.250;2023-05-12T01:28:47;98480.63;;;14.75;96.43
5455;BME280;2750;49.050;9.250;2023-05-12T01:33:48;98478.13;;;14.87;95.81
5455;BME280;2750;49.050;9.250;2023-05-12T01:38:50;98477.78;;;14.91;95.46
5455;BME280;2750;49.050;9.250;2023-05-12T01:43:53;98481.94;;;15.06;94.49
5455;BME280;2750;49.050;9.250;2023-05-12T01:48:54;98488.63;;;15.10;93.91
5455;BME280;2750;49.050;9.250;2023-05-12T01:53:55;98486.00;;;15.10;93.24
5455;BME280;2750;49.050;9.250;2023-05-12T01:58:58;98484.28;;;14.98;93.56
5455;BME280;2750;49.050;9.250;2023-05-12T02:04:00;98485.09;;;14.99;93.19
5455;BME280;2750;49.050;9.250;2023-05-12T02:09:02;98488.34;;;14.77;93.49
5455;BME280;2750;49.050;9.250;2023-05-12T02:14:06;98485.34;;;14.83;93.80
5455;BME280;2750;49.050;9.250;2023-05-12T02:19:07;98480.28;;;14.80;93.07
5455;BME280;2750;49.050;9.250;2023-05-12T02:24:08;98485.22;;;14.84;93.26
5455;BME280;2750;49.050;9.250;2023-05-12T02:29:11;98472.16;;;14.59;94.10
5455;BME280;2750;49.050;9.250;2023-05-12T02:34:13;98471.75;;;14.65;93.94
5455;BME280;2750;49.050;9.250;2023-05-12T02:39:15;98477.38;;;14.59;93.79
5455;BME280;2750;49.050;9.250;2023-05-12T02:44:17;98475.94;;;14.55;94.30
5455;BME280;2750;49.050;9.250;2023-05-12T02:49:21;98476.19;;;14.25;94.54
5455;BME280;2750;49.050;9.250;2023-05-12T02:54:22;98472.06;;;14.48;93.58
5455;BME280;2750;49.050;9.250;2023-05-12T02:59:25;98476.13;;;14.52;93.27
5455;BME280;2750;49.050;9.250;2023-05-12T03:04:27;98476.56;;;14.59;92.87
5455;BME280;2750;49.050;9.250;2023-05-12T03:09:28;98472.06;;;14.48;93.53
5455;BME280;2750;49.050;9.250;2023-05-12T03:14:31;98468.00;;;14.30;95.01
5455;BME280;2750;49.050;9.250;2023-05-12T03:19:33;98473.63;;;14.51;94.49
5455;BME280;2750;49.050;9.250;2023-05-12T03:24:34;98467.78;;;14.60;93.85
5455;BME280;2750;49.050;9.250;2023-05-12T03:29:37;98474.25;;;14.54;94.26
5455;BME280;2750;49.050;9.250;2023-05-12T03:34:39;98471.13;;;14.62;93.66
5455;BME280;2750;49.050;9.250;2023-05-12T03:39:40;98475.28;;;14.64;93.11
5455;BME280;2750;49.050;9.250;2023-05-12T03:44:43;98483.25;;;14.63;93.35
5455;BME280;2750;49.050;9.250;2023-05-12T03:49:44;98480.50;;;14.64;92.96
5455;BME280;2750;49.050;9.250;2023-05-12T03:54:46;98481.75;;;14.46;93.49
5455;BME280;2750;49.050;9.250;2023-05-12T03:59:48;98467.78;;;14.47;94.12
5455;BME280;2750;49.050;9.250;2023-05-12T04:04:50;98476.13;;;14.40;94.88
5455;BME280;2750;49.050;9.250;2023-05-12T04:09:51;98473.19;;;14.44;94.92
5455;BME280;2750;49.050;9.250;2023-05-12T04:14:54;98471.53;;;14.68;94.45
5455;BME280;2750;49.050;9.250;2023-05-12T04:19:56;98471.31;;;14.46;94.48
5455;BME280;2750;49.050;9.250;2023-05-12T04:24:57;98472.66;;;14.64;95.03
5455;BME280;2750;49.050;9.250;2023-05-12T04:30:00;98472.69;;;14.52;95.10
5455;BME280;2750;49.050;9.250;2023-05-12T04:35:02;98480.97;;;13.92;97.47
5455;BME280;2750;49.050;9.250;2023-05-12T04:40:05;98478.91;;;13.97;97.62
5455;BME280;2750;49.050;9.250;2023-05-12T04:45:10;98480.72;;;14.61;96.17
5455;BME280;2750;49.050;9.250;2023-05-12T04:50:11;98491.06;;;14.88;95.37
5455;BME280;2750;49.050;9.250;2023-05-12T04:55:13;98490.72;;;15.18;94.49
5455;BME280;2750;49.050;9.250;2023-05-12T05:00:16;98491.78;;;15.03;95.85
5455;BME280;2750;49.050;9.250;2023-05-12T05:05:18;98495.53;;;15.24;94.53
5455;BME280;2750;49.050;9.250;2023-05-12T05:10:19;98503.41;;;15.48;94.64
5455;BME280;2750;49.050;9.250;2023-05-12T05:15:22;98491.91;;;15.63;93.83
5455;BME280;2750;49.050;9.250;2023-05-12T05:20:24;98499.31;;;15.93;93.15
5455;BME280;2750;49.050;9.250;2023-05-12T05:25:27;98499.91;;;15.96;92.61
5455;BME280;2750;49.050;9.250;2023-05-12T05:30:30;98508.56;;;15.86;92.01
5455;BME280;2750;49.050;9.250;2023-05-12T05:35:31;98507.22;;;16.04;92.14
5455;BME280;2750;49.050;9.250;2023-05-12T05:40:33;98514.59;;;16.10;91.52
5455;BME280;2750;49.050;9.250;2023-05-12T05:45:36;98524.75;;;16.14;91.39
5455;BME280;2750;49.050;9.250;2023-05-12T05:50:37;98511.31;;;16.19;90.72
5455;BME280;2750;49.050;9.250;2023-05-12T05:55:39;98512.09;;;15.85;90.31
5455;BME280;2750;49.050;9.250;2023-05-12T06:00:42;98512.50;;;16.15;90.93
5455;BME280;2750;49.050;9.250;2023-05-12T06:05:43;98514.88;;;16.18;91.78
5455;BME280;2750;49.050;9.250;2023-05-12T06:10:45;98517.22;;;16.45;89.33
5455;BME280;2750;49.050;9.250;2023-05-12T06:15:48;98521.16;;;16.39;90.99
5455;BME280;2750;49.050;9.250;2023-05-12T06:20:50;98514.59;;;16.68;90.04
5455;BME280;2750;49.050;9.250;2023-05-12T06:25:51;98525.16;;;16.21;89.92
5455;BME280;2750;49.050;9.250;2023-05-12T06:30:54;98523.22;;;16.93;88.89
5455;BME280;2750;49.050;9.250;2023-05-12T06:35:55;98527.97;;;16.88;88.42
5455;BME280;2750;49.050;9.250;2023-05-12T06:40:57;98535.22;;;16.49;89.11
5455;BME280;2750;49.050;9.250;2023-05-12T06:46:00;98542.41;;;16.00;91.81
5455;BME280;2750;49.050;9.250;2023-05-12T06:51:02;98529.56;;;16.55;90.94
5455;BME280;2750;49.050;9.250;2023-05-12T06:56:04;98537.28;;;15.74;92.92
5455;BME280;2750;49.050;9.250;2023-05-12T07:01:07;98540.13;;;16.19;91.13
5455;BME280;2750;49.050;9.250;2023-05-12T07:06:08;98541.34;;;15.78;92.79
5455;BME280;2750;49.050;9.250;2023-05-12T07:11:10;98528.47;;;17.04;89.17
5455;BME280;2750;49.050;9.250;2023-05-12T07:16:13;98536.03;;;16.39;88.74
5455;BME280;2750;49.050;9.250;2023-05-12T07:21:15;98537.06;;;17.73;84.89
5455;BME280;2750;49.050;9.250;2023-05-12T07:26:17;98527.28;;;18.38;83.44
5455;BME280;2750;49.050;9.250;2023-05-12T07:31:19;98519.81;;;19.26;80.57
5455;BME280;2750;49.050;9.250;2023-05-12T07:36:21;98523.41;;;19.25;79.02
5455;BME280;2750;49.050;9.250;2023-05-12T07:41:23;98517.25;;;18.43;81.72
5455;BME280;2750;49.050;9.250;2023-05-12T07:46:26;98520.50;;;17.28;86.77
5455;BME280;2750;49.050;9.250;2023-05-12T07:51:27;98518.78;;;17.71;83.70
5455;BME280;2750;49.050;9.250;2023-05-12T07:56:29;98530.97;;;15.77;91.72
5455;BME280;2750;49.050;9.250;2023-05-12T08:01:31;98526.06;;;14.86;99.41
5455;BME280;2750;49.050;9.250;2023-05-12T08:06:34;98535.06;;;15.07;100.00
5455;BME280;2750;49.050;9.250;2023-05-12T08:11:35;98528.94;;;16.17;96.67
5455;BME280;2750;49.050;9.250;2023-05-12T08:16:38;98518.72;;;17.28;92.13
5455;BME280;2750;49.050;9.250;2023-05-12T08:21:40;98520.47;;;17.50;89.27
5455;BME280;2750;49.050;9.250;2023-05-12T08:26:41;98528.22;;;17.40;91.81
5455;BME280;2750;49.050;9.250;2023-05-12T08:31:44;98528.22;;;17.40;90.71
5455;BME280;2750;49.050;9.250;2023-05-12T08:36:45;98522.41;;;17.59;90.13
5455;BME280;2750;49.050;9.250;2023-05-12T08:41:51;98529.06;;;18.06;89.06
5455;BME280;2750;49.050;9.250;2023-05-12T08:46:57;98531.34;;;18.10;87.33
5455;BME280;2750;49.050;9.250;2023-05-12T08:52:01;98535.53;;;18.02;89.05
5455;BME280;2750;49.050;9.250;2023-05-12T08:57:03;98538.59;;;18.71;86.69
5455;BME280;2750;49.050;9.250;2023-05-12T09:02:07;98536.00;;;20.21;84.24
5455;BME280;2750;49.050;9.250;2023-05-12T09:07:09;98528.66;;;20.82;79.32
5455;BME280;2750;49.050;9.250;2023-05-12T09:12:13;98528.78;;;22.54;74.17
5455;BME280;2750;49.050;9.250;2023-05-12T09:17:17;98536.97;;;21.70;72.97
5455;BME280;2750;49.050;9.250;2023-05-12T09:22:26;98546.72;;;19.09;79.62
5455;BME280;2750;49.050;9.250;2023-05-12T09:27:28;98544.00;;;18.17;84.09
5455;BME280;2750;49.050;9.250;2023-05-12T09:32:32;98549.69;;;17.90;87.98
5455;BME280;2750;49.050;9.250;2023-05-12T09:37:34;98554.91;;;16.90;89.54
5455;BME280;2750;49.050;9.250;2023-05-12T09:42:36;98558.91;;;16.83;90.90
5455;BME280;2750;49.050;9.250;2023-05-12T09:47:39;98557.69;;;16.64;90.56
5455;BME280;2750;49.050;9.250;2023-05-12T09:52:40;98549.84;;;17.66;87.46
5455;BME280;2750;49.050;9.250;2023-05-12T09:57:42;98544.38;;;19.36;82.33
5455;BME280;2750;49.050;9.250;2023-05-12T10:02:48;98533.31;;;21.17;76.90
5455;BME280;2750;49.050;9.250;2023-05-12T10:07:50;98531.59;;;22.34;73.50
5455;BME280;2750;49.050;9.250;2023-05-12T10:12:53;98531.28;;;22.37;69.72
5455;BME280;2750;49.050;9.250;2023-05-12T10:17:57;98532.78;;;21.04;73.59
5455;BME280;2750;49.050;9.250;2023-05-12T10:23:00;98528.81;;;23.05;70.78
5455;BME280;2750;49.050;9.250;2023-05-12T10:28:02;98531.25;;;24.00;67.28
5455;BME280;2750;49.050;9.250;2023-05-12T10:33:06;98536.84;;;24.55;68.67
5455;BME280;2750;49.050;9.250;2023-05-12T10:38:13;98534.97;;;23.40;67.94
5455;BME280;2750;49.050;9.250;2023-05-12T10:43:20;98537.16;;;22.31;70.71
5455;BME280;2750;49.050;9.250;2023-05-12T10:48:24;98538.34;;;22.19;69.95
5455;BME280;2750;49.050;9.250;2023-05-12T10:53:26;98532.31;;;22.09;73.23
5455;BME280;2750;49.050;9.250;2023-05-12T10:58:28;98529.31;;;21.50;74.57
5455;BME280;2750;49.050;9.250;2023-05-12T11:03:31;98530.31;;;21.39;74.48
5455;BME280;2750;49.050;9.250;2023-05-12T11:08:35;98533.75;;;21.49;73.05
5455;BME280;2750;49.050;9.250;2023-05-12T11:13:37;98528.91;;;21.44;73.91
5455;BME280;2750;49.050;9.250;2023-05-12T11:18:40;98530.78;;;21.62;73.94
5455;BME280;2750;49.050;9.250;2023-05-12T11:23:42;98541.41;;;21.70;73.56
5455;BME280;2750;49.050;9.250;2023-05-12T11:28:43;98544.78;;;21.35;73.60
5455;BME280;2750;49.050;9.250;2023-05-12T11:33:47;98540.94;;;21.57;73.34
5455;BME280;2750;49.050;9.250;2023-05-12T11:38:49;98539.50;;;21.62;72.14
5455;BME280;2750;49.050;9.250;2023-05-12T11:43:50;98546.13;;;21.76;71.38
5455;BME280;2750;49.050;9.250;2023-05-12T11:48:57;98544.97;;;21.88;71.04
5455;BME280;2750;49.050;9.250;2023-05-12T11:53:59;98551.06;;;22.33;70.22
5455;BME280;2750;49.050;9.250;2023-05-12T11:59:00;98557.78;;;22.28;70.18
5455;BME280;2750;49.050;9.250;2023-05-12T12:04:03;98562.00;;;21.66;70.86
5455;BME280;2750;49.050;9.250;2023-05-12T12:09:05;98575.63;;;19.81;77.04
5455;BME280;2750;49.050;9.250;2023-05-12T12:14:07;98583.19;;;18.72;83.23
5455;BME280;2750;49.050;9.250;2023-05-12T12:19:10;98589.84;;;18.44;84.75
5455;BME280;2750;49.050;9.250;2023-05-12T12:24:12;98591.53;;;18.45;86.54
5455;BME280;2750;49.050;9.250;2023-05-12T12:29:14;98599.78;;;17.31;90.12
5455;BME280;2750;49.050;9.250;2023-05-12T12:34:17;98608.09;;;17.25;92.10
5455;BME280;2750;49.050;9.250;2023-05-12T12:39:18;98616.50;;;16.60;92.08
5455;BME280;2750;49.050;9.250;2023-05-12T12:44:20;98617.72;;;16.20;93.12
5455;BME280;2750;49.050;9.250;2023-05-12T12:49:23;98607.03;;;16.70;92.73
5455;BME280;2750;49.050;9.250;2023-05-12T12:54:28;98610.44;;;16.36;92.68
5455;BME280;2750;49.050;9.250;2023-05-12T12:59:30;98607.63;;;16.26;92.40
5455;BME280;2750;49.050;9.250;2023-05-12T13:04:33;98606.63;;;16.99;91.32
5455;BME280;2750;49.050;9.250;2023-05-12T13:09:35;98608.94;;;17.48;88.72
5455;BME280;2750;49.050;9.250;2023-05-12T13:14:36;98595.44;;;18.19;85.56
5455;BME280;2750;49.050;9.250;2023-05-12T13:19:39;98591.16;;;19.02;82.42
5455;BME280;2750;49.050;9.250;2023-05-12T13:24:42;98592.09;;;19.22;81.06
5455;BME280;2750;49.050;9.250;2023-05-12T13:29:44;98588.16;;;19.58;79.35
5455;BME280;2750;49.050;9.250;2023-05-12T13:34:47;98596.16;;;20.46;76.99
5455;BME280;2750;49.050;9.250;2023-05-12T13:39:49;98590.84;;;21.04;75.92
5455;BME280;2750;49.050;9.250;2023-05-12T13:44:50;98592.78;;;21.95;73.94
5455;BME280;2750;49.050;9.250;2023-05-12T13:49:53;98583.06;;;23.01;71.20
5455;BME280;2750;49.050;9.250;2023-05-12T13:54:56;98586.00;;;23.42;67.96
5455;BME280;2750;49.050;9.250;2023-05-12T13:59:58;98580.38;;;22.58;70.02
5455;BME280;2750;49.050;9.250;2023-05-12T14:05:01;98591.00;;;20.83;73.12
5455;BME280;2750;49.050;9.250;2023-05-12T14:10:03;98575.91;;;20.66;75.37
5455;BME280;2750;49.050;9.250;2023-05-12T14:15:06;98596.00;;;20.57;75.04
5455;BME280;2750;49.050;9.250;2023-05-12T14:20:09;98591.88;;;20.05;76.01
5455;BME280;2750;49.050;9.250;2023-05-12T14:25:11;98594.94;;;19.61;76.95
5455;BME280;2750;49.050;9.250;2023-05-12T14:30:13;98591.56;;;19.28;77.42
5455;BME280;2750;49.050;9.250;2023-05-12T14:35:16;98595.88;;;18.35;79.62
5455;BME280;2750;49.050;9.250;2023-05-12T14:40:18;98600.53;;;17.78;78.08
5455;BME280;2750;49.050;9.250;2023-05-12T14:45:20;98602.19;;;17.79;78.12
5455;BME280;2750;49.050;9.250;2023-05-12T14:50:23;98610.03;;;17.45;78.67
5455;BME280;2750;49.050;9.250;2023-05-12T14:55:24;98612.31;;;17.50;79.21
5455;BME280;2750;49.050;9.250;2023-05-12T15:00:27;98606.25;;;17.72;78.60
5455;BME280;2750;49.050;9.250;2023-05-12T15:05:30;98622.72;;;17.74;78.73
5455;BME280;2750;49.050;9.250;2023-05-12T15:10:32;98621.47;;;17.33;80.58
5455;BME280;2750;49.050;9.250;2023-05-12T15:15:33;98627.56;;;17.34;81.35
5455;BME280;2750;49.050;9.250;2023-05-12T15:20:36;98630.28;;;18.21;79.39
5455;BME280;2750;49.050;9.250;2023-05-12T15:25:38;98626.41;;;18.47;78.22
5455;BME280;2750;49.050;9.250;2023-05-12T15:30:40;98627.72;;;19.05;77.00
5455;BME280;2750;49.050;9.250;2023-05-12T15:35:43;98627.19;;;18.91;77.31
5455;BME280;2750;49.050;9.250;2023-05-12T15:40:44;98619.25;;;19.02;76.16
5455;BME280;2750;49.050;9.250;2023-05-12T15:45:46;98617.22;;;19.47;75.40
5455;BME280;2750;49.050;9.250;2023-05-12T15:50:49;98621.94;;;19.53;75.45
5455;BME280;2750;49.050;9.250;2023-05-12T15:55:57;98624.25;;;19.46;74.16
5455;BME280;2750;49.050;9.250;2023-05-12T16:00:59;98626.22;;;19.33;76.01
5455;BME280;2750;49.050;9.250;2023-05-12T16:06:02;98630.59;;;18.82;76.86
5455;BME280;2750;49.050;9.250;2023-05-12T16:11:04;98629.41;;;17.66;78.70
5455;BME280;2750;49.050;9.250;2023-05-12T16:16:06;98623.66;;;17.95;77.93
5455;BME280;2750;49.050;9.250;2023-05-12T16:21:09;98627.44;;;18.02;79.37
5455;BME280;2750;49.050;9.250;2023-05-12T16:26:11;98628.78;;;17.96;79.03
5455;BME280;2750;49.050;9.250;2023-05-12T16:31:13;98626.34;;;17.27;81.01
5455;BME280;2750;49.050;9.250;2023-05-12T16:36:18;98626.94;;;17.30;81.87
5455;BME280;2750;49.050;9.250;2023-05-12T16:41:20;98628.09;;;16.69;85.52
5455;BME280;2750;49.050;9.250;2023-05-12T16:46:21;98632.16;;;16.73;86.20
5455;BME280;2750;49.050;9.250;2023-05-12T16:51:24;98631.19;;;16.98;86.00
5455;BME280;2750;49.050;9.250;2023-05-12T16:56:29;98634.50;;;16.89;86.40
5455;BME280;2750;49.050;9.250;2023-05-12T17:01:31;98627.41;;;16.67;86.56
5455;BME280;2750;49.050;9.250;2023-05-12T17:06:34;98640.75;;;16.51;86.99
5455;BME280;2750;49.050;9.250;2023-05-12T17:11:36;98646.63;;;16.79;85.63
5455;BME280;2750;49.050;9.250;2023-05-12T17:16:37;98655.13;;;16.46;86.89
5455;BME280;2750;49.050;9.250;2023-05-12T17:21:41;98657.38;;;16.63;85.56
5455;BME280;2750;49.050;9.250;2023-05-12T17:26:42;98663.31;;;16.89;84.97
5455;BME280;2750;49.050;9.250;2023-05-12T17:31:44;98670.97;;;16.44;86.11
5455;BME280;2750;49.050;9.250;2023-05-12T17:36:46;98681.22;;;16.47;85.71
5455;BME280;2750;49.050;9.250;2023-05-12T17:41:48;98671.97;;;16.54;85.13
5455;BME280;2750;49.050;9.250;2023-05-12T17:46:49;98675.97;;;16.11;86.49
5455;BME280;2750;49.050;9.250;2023-05-12T17:51:53;98678.88;;;16.19;86.18
5455;BME280;2750;49.050;9.250;2023-05-12T17:56:55;98669.06;;;16.10;86.76
5455;BME280;2750;49.050;9.250;2023-05-12T18:01:57;98677.59;;;15.88;87.01
5455;BME280;2750;49.050;9.250;2023-05-12T18:06:59;98682.69;;;16.02;87.78
5455;BME280;2750;49.050;9.250;2023-05-12T18:12:01;98681.53;;;16.06;86.80
5455;BME280;2750;49.050;9.250;2023-05-12T18:17:03;98681.34;;;16.09;85.30
5455;BME280;2750;49.050;9.250;2023-05-12T18:22:06;98690.72;;;16.48;84.48
5455;BME280;2750;49.050;9.250;2023-05-12T18:27:07;98694.25;;;16.36;84.71
5455;BME280;2750;49.050;9.250;2023-05-12T18:32:09;98689.66;;;16.27;85.28
5455;BME280;2750;49.050;9.250;2023-05-12T18:37:12;98691.75;;;16.22;84.87
5455;BME280;2750;49.050;9.250;2023-05-12T18:42:14;98688.25;;;15.98;84.40
5455;BME280;2750;49.050;9.250;2023-05-12T18:47:16;98686.03;;;16.17;84.15
5455;BME280;2750;49.050;9.250;2023-05-12T18:52:19;98686.31;;;16.25;84.87
5455;BME280;2750;49.050;9.250;2023-05-12T18:57:20;98694.78;;;16.65;83.76
5455;BME280;2750;49.050;9.250;2023-05-12T19:02:22;98704.28;;;16.42;83.74
5455;BME280;2750;49.050;9.250;2023-05-12T19:07:25;98705.94;;;16.80;83.18
5455;BME280;2750;49.050;9.250;2023-05-12T19:12:26;98722.75;;;16.64;83.19
5455;BME280;2750;49.050;9.250;2023-05-12T19:17:28;98726.22;;;16.89;82.54
5455;BME280;2750;49.050;9.250;2023-05-12T19:22:31;98737.06;;;16.48;83.60
5455;BME280;2750;49.050;9.250;2023-05-12T19:27:33;98736.53;;;16.43;83.01
5455;BME280;2750;49.050;9.250;2023-05-12T19:32:35;98739.50;;;16.25;83.70
5455;BME280;2750;49.050;9.250;2023-05-12T19:37:38;98735.25;;;16.48;82.91
5455;BME280;2750;49.050;9.250;2023-05-12T19:42:39;98736.00;;;16.63;83.15
5455;BME280;2750;49.050;9.250;2023-05-12T19:47:41;98732.72;;;17.31;80.41
5455;BME280;2750;49.050;9.250;2023-05-12T19:52:44;98759.97;;;16.20;84.23
5455;BME280;2750;49.050;9.250;2023-05-12T19:57:45;98764.38;;;15.69;86.14
5455;BME280;2750;49.050;9.250;2023-05-12T20:02:47;98776.53;;;15.04;89.25
5455;BME280;2750;49.050;9.250;2023-05-12T20:07:50;98766.06;;;15.31;88.88
5455;BME280;2750;49.050;9.250;2023-05-12T20:12:51;98764.84;;;15.10;90.16
5455;BME280;2750;49.050;9.250;2023-05-12T20:17:54;98764.44;;;15.16;90.42
5455;BME280;2750;49.050;9.250;2023-05-12T20:22:56;98772.03;;;15.33;90.00
5455;BME280;2750;49.050;9.250;2023-05-12T20:27:58;98787.00;;;15.04;90.75
5455;BME280;2750;49.050;9.250;2023-05-12T20:33:00;98797.22;;;14.95;91.34
5455;BME280;2750;49.050;9.250;2023-05-12T20:38:02;98788.78;;;15.43;89.75
5455;BME280;2750;49.050;9.250;2023-05-12T20:43:04;98783.75;;;15.40;89.07
5455;BME280;2750;49.050;9.250;2023-05-12T20:48:06;98790.16;;;15.22;89.17
5455;BME280;2750;49.050;9.250;2023-05-12T20:53:08;98785.81;;;15.62;87.97
5455;BME280;2750;49.050;9.250;2023-05-12T20:58:10;98793.25;;;15.41;88.21
5455;BME280;2750;49.050;9.250;2023-05-12T21:03:11;98791.47;;;14.75;91.26
5455;BME280;2750;49.050;9.250;2023-05-12T21:08:17;98796.38;;;14.94;90.43
5455;BME280;2750;49.050;9.250;2023-05-12T21:13:19;98776.53;;;14.77;90.36
5455;BME280;2750;49.050;9.250;2023-05-12T21:18:20;98786.16;;;15.04;88.77
5455;BME280;2750;49.050;9.250;2023-05-12T21:23:23;98793.13;;;14.91;88.75
5455;BME280;2750;49.050;9.250;2023-05-12T21:28:25;98799.81;;;15.21;87.62
5455;BME280;2750;49.050;9.250;2023-05-12T21:33:26;98796.09;;;15.38;87.18
5455;BME280;2750;49.050;9.250;2023-05-12T21:38:31;98798.78;;;15.24;86.51
5455;BME280;2750;49.050;9.250;2023-05-12T21:43:32;98798.78;;;15.24;86.34
5455;BME280;2750;49.050;9.250;2023-05-12T21:48:34;98796.84;;;15.40;86.67
5455;BME280;2750;49.050;9.250;2023-05-12T21:53:36;98798.50;;;15.14;88.70
5455;BME280;2750;49.050;9.250;2023-05-12T21:58:38;98798.72;;;15.11;88.85
5455;BME280;2750;49.050;9.250;2023-05-12T22:03:40;98808.22;;;15.39;87.88
5455;BME280;2750;49.050;9.250;2023-05-12T22:08:43;98810.41;;;15.45;87.62
5455;BME280;2750;49.050;9.250;2023-05-12T22:13:44;98809.50;;;15.46;87.13
5455;BME280;2750;49.050;9.250;2023-05-12T22:18:46;98814.16;;;15.55;86.92
5455;BME280;2750;49.050;9.250;2023-05-12T22:23:49;98819.69;;;14.97;89.09
5455;BME280;2750;49.050;9.250;2023-05-12T22:28:50;98816.28;;;14.82;90.09
5455;BME280;2750;49.050;9.250;2023-05-12T22:33:52;98822.44;;;15.35;87.69
5455;BME280;2750;49.050;9.250;2023-05-12T22:38:55;98813.94;;;15.58;86.85
5455;BME280;2750;49.050;9.250;2023-05-12T22:43:56;98816.47;;;15.72;85.87
5455;BME280;2750;49.050;9.250;2023-05-12T22:48:58;98816.16;;;14.98;87.23
5455;BME280;2750;49.050;9.250;2023-05-12T22:54:01;98811.00;;;14.97;87.40
5455;BME280;2750;49.050;9.250;2023-05-12T22:59:02;98809.22;;;15.24;86.17
5455;BME280;2750;49.050;9.250;2023-05-12T23:04:04;98823.28;;;14.82;88.09
5455;BME280;2750;49.050;9.250;2023-05-12T23:09:06;98821.34;;;14.71;87.69
5455;BME280;2750;49.050;9.250;2023-05-12T23:14:08;98812.19;;;14.64;87.71
5455;BME280;2750;49.050;9.250;2023-05-12T23:19:10;98800.28;;;14.32;88.77
5455;BME280;2750;49.050;9.250;2023-05-12T23:24:13;98803.59;;;14.34;88.15
5455;BME280;2750;49.050;9.250;2023-05-12T23:29:15;98803.59;;;13.92;90.69
5455;BME280;2750;49.050;9.250;2023-05-12T23:34:16;98802.78;;;13.91;91.18
5455;BME280;2750;49.050;9.250;2023-05-12T23:39:19;98804.28;;;13.95;90.32
5455;BME280;2750;49.050;9.250;2023-05-12T23:44:20;98803.44;;;13.95;89.17
5455;BME280;2750;49.050;9.250;2023-05-12T23:49:22;98794.66;;;13.81;89.78
5455;BME280;2750;49.050;9.250;2023-05-12T23:54:24;98794.88;;;13.49;91.47
5455;BME280;2750;49.050;9.250;2023-05-12T23:59:26;98794.59;;;13.53;90.74
